上海/浦東 の空港の天気 - METARとTAF

上海浦東国際空港 ( ZSPD / PVG ) - 中華人民共和国 上海市
飛行場実況気象(Metar)
観測時間02/28 06:00 CST (02/27 22:00 UTC)
風向・風速南 2m/s
視程10km以上
天気現象
なし
気温4℃
湿度93%
気圧1026hPa
METARZSPD 272200Z 17002MPS 080V220 CAVOK 04/03 Q1026 NOSIG
過去の天気等 Google飛行場航空写真 Wunderground天気予報

過去48時間のMETAR

飛行場予報(TAF)
発表時間: 2/27 23:13 CST (2/27 15:13 UTC)
予報対象時間: 28日2時 CST ~ 1日2時 CST
風向・風速南東 4m/s
視程5,000m
天気現象もや
全天の4割程度の雲 雲底高度 490m
28日4時 CST ~ 28日8時 CST に 確率 40% で一時的に
視程2,000m
天気現象もや
TAF ZSPD 271513Z 2718/2818 13004MPS 5000 BR SCT016 TX14/2806Z TN03/2721Z
PROB40 TEMPO 2720/2724 2000 BR